Time;durP1;ratioP1;P1;durP2;ratioP2;P2;SDS_P1;SDS_P2;PMS_P1;PMS_P2;Temp;Humidity;BMP_temperature;BMP_pressure;BME280_temperature;BME280_humidity;BME280_pressure;Samples;Min_cycle;Max_cycle;Signal;HPM_P1;HPM_P2
2021/08/19 00:00:18;;;;;;;;;5.20;5.20;;;;;;;;4982817;28;8865;-92
2021/08/19 00:02:45;;;;;;;;;3.60;3.60;;;;;;;;4985347;28;8884;-82
2021/08/19 00:05:12;;;;;;;;;4.40;4.40;;;;;;;;4966837;28;9635;-88
2021/08/19 00:07:40;;;;;;;;;4.40;3.60;;;;;;;;4987973;28;8865;-91
2021/08/19 00:10:10;;;;;;;;;6.00;4.60;;;;;;;;4987457;28;8868;-91
2021/08/19 00:12:37;;;;;;;;;3.20;3.20;;;;;;;;4988497;28;8853;-86
2021/08/19 00:15:08;;;;;;;;;5.60;4.20;;;;;;;;4987723;28;8911;-90
2021/08/19 00:17:35;;;;;;;;;6.20;5.20;;;;;;;;4979941;28;8888;-86
2021/08/19 00:20:03;;;;;;;;;5.00;5.00;;;;;;;;4988682;28;8888;-90
2021/08/19 00:22:32;;;;;;;;;3.00;3.00;;;;;;;;4987676;28;8873;-85
2021/08/19 00:24:59;;;;;;;;;3.20;3.20;;;;;;;;4989406;28;8940;-86
2021/08/19 00:27:27;;;;;;;;;4.00;4.00;;;;;;;;4988064;28;8869;-92
2021/08/19 00:29:54;;;;;;;;;2.00;2.00;;;;;;;;4987663;28;8890;-84
2021/08/19 00:32:23;;;;;;;;;3.40;3.40;;;;;;;;4986613;28;8817;-84
2021/08/19 00:34:51;;;;;;;;;4.00;4.00;;;;;;;;4988314;28;8897;-85
2021/08/19 00:37:18;;;;;;;;;4.00;4.00;;;;;;;;4987206;28;8849;-88
2021/08/19 00:39:46;;;;;;;;;4.60;4.60;;;;;;;;4987003;28;8946;-83
2021/08/19 00:42:15;;;;;;;;;4.00;4.00;;;;;;;;4987784;28;8877;-83
2021/08/19 00:44:43;;;;;;;;;3.40;3.40;;;;;;;;4987480;28;8889;-88
2021/08/19 00:47:11;;;;;;;;;2.60;2.60;;;;;;;;4969889;28;8877;-85
2021/08/19 00:49:41;;;;;;;;;6.00;3.40;;;;;;;;4986802;28;8889;-83
2021/08/19 00:52:09;;;;;;;;;5.40;3.40;;;;;;;;4987424;28;8903;-88
2021/08/19 00:54:37;;;;;;;;;3.40;3.40;;;;;;;;4986832;28;8879;-74
2021/08/19 00:57:06;;;;;;;;;4.00;4.00;;;;;;;;4985399;28;8901;-77
2021/08/19 00:59:35;;;;;;;;;3.40;3.40;;;;;;;;4985175;28;8877;-75
2021/08/19 01:02:03;;;;;;;;;3.60;3.60;;;;;;;;4982213;28;8877;-75
2021/08/19 01:04:32;;;;;;;;;3.00;3.00;;;;;;;;4969466;28;8877;-86
2021/08/19 01:07:01;;;;;;;;;4.00;4.00;;;;;;;;4984980;28;8869;-89
2021/08/19 01:09:29;;;;;;;;;4.80;4.80;;;;;;;;4987261;28;8881;-82
2021/08/19 01:11:57;;;;;;;;;3.60;3.60;;;;;;;;4986319;28;8916;-92
2021/08/19 01:14:24;;;;;;;;;4.40;4.40;;;;;;;;4986703;28;8891;-89
2021/08/19 01:16:52;;;;;;;;;3.00;3.00;;;;;;;;4987356;28;8877;-91
2021/08/19 01:19:20;;;;;;;;;4.40;4.40;;;;;;;;4985966;28;8892;-88
2021/08/19 01:21:49;;;;;;;;;3.00;3.00;;;;;;;;4969650;28;8876;-90
2021/08/19 01:24:18;;;;;;;;;2.20;2.20;;;;;;;;4986431;28;8887;-87
2021/08/19 01:26:45;;;;;;;;;3.60;3.60;;;;;;;;4987121;28;8883;-85
2021/08/19 01:29:14;;;;;;;;;3.40;2.00;;;;;;;;4986477;28;8887;-88
2021/08/19 01:31:42;;;;;;;;;4.00;4.00;;;;;;;;4985999;28;8819;-92
2021/08/19 01:34:09;;;;;;;;;5.00;3.75;;;;;;;;4987797;28;8883;-92
2021/08/19 01:36:36;;;;;;;;;2.50;2.00;;;;;;;;4986448;28;8873;-91
2021/08/19 01:39:04;;;;;;;;;2.80;2.80;;;;;;;;4985751;28;8984;-91
2021/08/19 01:41:31;;;;;;;;;1.40;1.40;;;;;;;;4985806;28;8884;-90
2021/08/19 01:43:58;;;;;;;;;2.20;2.20;;;;;;;;4986967;28;8854;-86
2021/08/19 01:46:27;;;;;;;;;2.40;2.40;;;;;;;;4985666;28;8865;-83
2021/08/19 01:48:54;;;;;;;;;3.00;3.00;;;;;;;;4986915;28;8889;-89
2021/08/19 01:51:22;;;;;;;;;2.60;2.40;;;;;;;;4986090;28;8894;-82
2021/08/19 01:53:49;;;;;;;;;3.20;2.60;;;;;;;;4985748;28;8907;-92
2021/08/19 01:56:18;;;;;;;;;3.00;3.00;;;;;;;;4987761;28;8988;-92
2021/08/19 01:58:45;;;;;;;;;3.00;3.00;;;;;;;;4986554;28;8902;-93
2021/08/19 02:01:18;;;;;;;;;2.00;2.00;;;;;;;;4987096;28;8805;-93
2021/08/19 02:03:47;;;;;;;;;3.00;3.00;;;;;;;;4986796;28;8891;-92
2021/08/19 02:06:15;;;;;;;;;2.40;2.40;;;;;;;;4987701;28;8907;-89
2021/08/19 02:08:42;;;;;;;;;1.80;1.60;;;;;;;;4988860;28;8868;-95
2021/08/19 02:11:09;;;;;;;;;3.00;3.00;;;;;;;;4986068;28;8869;-88
2021/08/19 02:13:37;;;;;;;;;3.00;3.00;;;;;;;;4987031;28;8857;-92
2021/08/19 02:16:05;;;;;;;;;3.80;3.00;;;;;;;;4985798;28;9656;-90
2021/08/19 02:18:32;;;;;;;;;3.20;2.20;;;;;;;;4986361;28;8849;-88
2021/08/19 02:21:01;;;;;;;;;3.80;2.40;;;;;;;;4985780;28;8896;-90
2021/08/19 02:23:28;;;;;;;;;2.40;2.40;;;;;;;;4986680;28;8873;-91
2021/08/19 02:25:55;;;;;;;;;4.00;4.00;;;;;;;;4986368;28;8905;-87
2021/08/19 02:28:23;;;;;;;;;3.00;3.00;;;;;;;;4985265;28;9652;-88
2021/08/19 02:30:50;;;;;;;;;2.00;2.00;;;;;;;;4984966;28;8814;-91
2021/08/19 02:33:17;;;;;;;;;1.60;1.60;;;;;;;;4984767;28;9647;-95
2021/08/19 02:35:44;;;;;;;;;4.60;3.00;;;;;;;;4987629;28;8875;-85
2021/08/19 02:38:13;;;;;;;;;2.40;2.40;;;;;;;;4961711;28;8868;-93
2021/08/19 02:40:41;;;;;;;;;2.20;2.20;;;;;;;;4986008;28;8877;-78
2021/08/19 02:43:08;;;;;;;;;2.20;1.20;;;;;;;;4985367;28;8845;-93
2021/08/19 02:45:35;;;;;;;;;1.60;1.60;;;;;;;;4985152;28;8861;-85
2021/08/19 02:48:03;;;;;;;;;2.00;2.00;;;;;;;;4987073;28;9816;-81
2021/08/19 02:50:30;;;;;;;;;1.00;1.00;;;;;;;;4984897;28;8853;-90
2021/08/19 02:52:58;;;;;;;;;2.20;2.20;;;;;;;;4985572;28;8865;-86
2021/08/19 02:55:27;;;;;;;;;1.00;1.00;;;;;;;;4989495;28;8863;-92
2021/08/19 02:57:54;;;;;;;;;3.00;3.00;;;;;;;;4985103;28;8869;-90
2021/08/19 03:00:21;;;;;;;;;2.60;2.60;;;;;;;;4983723;28;8869;-81
2021/08/19 03:02:49;;;;;;;;;3.00;3.00;;;;;;;;4985667;28;9678;-90
2021/08/19 03:05:16;;;;;;;;;3.40;2.60;;;;;;;;4985633;28;8961;-79
2021/08/19 03:07:44;;;;;;;;;2.00;2.00;;;;;;;;4967698;28;8897;-87
2021/08/19 03:10:11;;;;;;;;;1.80;1.80;;;;;;;;4984935;28;8909;-91
2021/08/19 03:12:40;;;;;;;;;1.60;1.60;;;;;;;;4974933;28;8889;-92
2021/08/19 03:15:08;;;;;;;;;2.00;2.00;;;;;;;;4986101;28;8875;-88
2021/08/19 03:17:36;;;;;;;;;1.80;1.00;;;;;;;;4985604;28;8877;-90
2021/08/19 03:20:03;;;;;;;;;1.40;1.40;;;;;;;;4986436;28;8877;-86
2021/08/19 03:22:30;;;;;;;;;0.80;0.80;;;;;;;;4986342;28;8868;-91
2021/08/19 03:24:59;;;;;;;;;0.20;0.20;;;;;;;;4985462;28;8889;-92
2021/08/19 03:27:28;;;;;;;;;3.40;1.80;;;;;;;;4986093;28;8856;-84
2021/08/19 03:29:57;;;;;;;;;2.00;2.00;;;;;;;;4966701;28;8925;-82
2021/08/19 03:32:25;;;;;;;;;0.80;0.80;;;;;;;;4984483;28;8813;-78
2021/08/19 03:34:52;;;;;;;;;0.00;0.00;;;;;;;;4984470;28;8877;-75
2021/08/19 03:37:20;;;;;;;;;0.40;0.40;;;;;;;;4967462;28;8873;-92
2021/08/19 03:39:47;;;;;;;;;1.60;0.00;;;;;;;;4985497;28;8977;-85
2021/08/19 03:42:15;;;;;;;;;0.00;0.00;;;;;;;;4986601;28;8881;-94
2021/08/19 03:44:42;;;;;;;;;0.00;0.00;;;;;;;;4989070;28;8858;-83
2021/08/19 03:47:11;;;;;;;;;0.20;0.20;;;;;;;;4970686;28;9046;-88
2021/08/19 03:49:38;;;;;;;;;0.00;0.00;;;;;;;;4990850;28;9019;-85
2021/08/19 03:52:06;;;;;;;;;1.00;1.00;;;;;;;;4970894;28;8901;-82
2021/08/19 03:54:34;;;;;;;;;0.00;0.00;;;;;;;;4989954;28;8857;-81
2021/08/19 03:57:02;;;;;;;;;0.00;0.00;;;;;;;;4988095;28;8881;-81
2021/08/19 03:59:29;;;;;;;;;0.40;0.40;;;;;;;;4968315;28;8971;-76
2021/08/19 04:01:57;;;;;;;;;1.00;1.00;;;;;;;;4985205;28;8844;-92
2021/08/19 04:04:26;;;;;;;;;1.00;1.00;;;;;;;;4987801;28;8857;-84
2021/08/19 04:06:53;;;;;;;;;0.00;0.00;;;;;;;;4989070;28;8907;-91
2021/08/19 04:09:20;;;;;;;;;1.00;1.00;;;;;;;;4987598;28;8907;-92
2021/08/19 04:11:47;;;;;;;;;0.00;0.00;;;;;;;;4979067;28;8877;-91
2021/08/19 04:14:15;;;;;;;;;0.00;0.00;;;;;;;;4987807;28;8869;-91
2021/08/19 04:16:42;;;;;;;;;0.20;0.20;;;;;;;;4988122;28;8872;-90
2021/08/19 04:19:09;;;;;;;;;0.00;0.00;;;;;;;;4987467;28;8867;-93
2021/08/19 04:21:38;;;;;;;;;0.00;0.00;;;;;;;;4987465;28;8905;-92
2021/08/19 04:24:06;;;;;;;;;0.00;0.00;;;;;;;;4988586;28;8925;-86
2021/08/19 04:26:33;;;;;;;;;0.40;0.40;;;;;;;;4987053;28;9020;-86
2021/08/19 04:29:01;;;;;;;;;0.00;0.00;;;;;;;;4988285;28;8877;-90
2021/08/19 04:31:28;;;;;;;;;0.00;0.00;;;;;;;;4985350;28;8891;-83
2021/08/19 04:33:55;;;;;;;;;1.00;1.00;;;;;;;;4994234;28;8869;-85
2021/08/19 04:36:23;;;;;;;;;0.00;0.00;;;;;;;;4991257;28;8861;-91
2021/08/19 04:38:51;;;;;;;;;0.00;0.00;;;;;;;;4987851;28;9016;-88
2021/08/19 04:41:19;;;;;;;;;0.40;0.40;;;;;;;;4988118;28;8971;-88
2021/08/19 04:43:46;;;;;;;;;1.00;1.00;;;;;;;;4982662;28;8881;-88
2021/08/19 04:46:13;;;;;;;;;1.40;0.00;;;;;;;;4988582;28;8897;-89
2021/08/19 04:48:40;;;;;;;;;0.60;0.60;;;;;;;;4986693;28;9004;-87
2021/08/19 04:51:08;;;;;;;;;0.20;0.20;;;;;;;;4987877;28;8987;-82
2021/08/19 04:53:35;;;;;;;;;0.00;0.00;;;;;;;;4987443;28;8901;-90
2021/08/19 04:56:04;;;;;;;;;0.80;0.80;;;;;;;;4987062;28;9011;-84
2021/08/19 04:58:31;;;;;;;;;1.00;1.00;;;;;;;;4988259;28;8846;-80
2021/08/19 05:00:58;;;;;;;;;0.40;0.40;;;;;;;;4985552;28;8850;-87
2021/08/19 05:03:25;;;;;;;;;1.00;1.00;;;;;;;;4987672;28;8865;-79
2021/08/19 05:05:53;;;;;;;;;1.00;1.00;;;;;;;;4986958;28;8848;-94
2021/08/19 05:08:20;;;;;;;;;1.00;1.00;;;;;;;;4988207;28;8918;-92
2021/08/19 05:10:47;;;;;;;;;1.00;1.00;;;;;;;;4987567;28;8968;-90
2021/08/19 05:13:17;;;;;;;;;0.00;0.00;;;;;;;;4987148;28;8904;-93
2021/08/19 05:15:45;;;;;;;;;1.00;1.00;;;;;;;;4988138;28;8876;-87
2021/08/19 05:18:12;;;;;;;;;0.00;0.00;;;;;;;;4987083;28;8877;-84
2021/08/19 05:20:40;;;;;;;;;0.40;0.40;;;;;;;;4987253;28;8888;-78
2021/08/19 05:23:07;;;;;;;;;0.80;0.80;;;;;;;;4986383;28;8889;-84
2021/08/19 05:25:35;;;;;;;;;1.00;1.00;;;;;;;;4987629;28;8854;-80
2021/08/19 05:28:02;;;;;;;;;0.00;0.00;;;;;;;;4986542;28;8920;-81
2021/08/19 05:30:31;;;;;;;;;0.00;0.00;;;;;;;;4986295;28;8964;-85
2021/08/19 05:32:58;;;;;;;;;2.00;0.20;;;;;;;;4958395;28;8893;-87
2021/08/19 05:35:25;;;;;;;;;1.00;1.00;;;;;;;;4986852;28;8887;-86
2021/08/19 05:37:53;;;;;;;;;1.00;1.00;;;;;;;;4986185;28;8959;-75
2021/08/19 05:40:20;;;;;;;;;1.40;1.00;;;;;;;;4984733;28;8887;-72
2021/08/19 05:42:48;;;;;;;;;1.00;1.00;;;;;;;;4968726;28;9015;-76
2021/08/19 05:45:15;;;;;;;;;1.00;1.00;;;;;;;;4984857;28;8901;-74
2021/08/19 05:47:44;;;;;;;;;1.00;1.00;;;;;;;;4984633;28;8877;-74
2021/08/19 05:50:11;;;;;;;;;0.00;0.00;;;;;;;;4982921;28;8873;-73
2021/08/19 05:52:39;;;;;;;;;0.00;0.00;;;;;;;;4989208;28;8932;-73
2021/08/19 05:55:08;;;;;;;;;1.00;1.00;;;;;;;;4984659;28;8901;-73
2021/08/19 05:57:35;;;;;;;;;1.00;1.00;;;;;;;;4984011;28;8903;-74
2021/08/19 06:00:03;;;;;;;;;1.00;1.00;;;;;;;;4984963;28;8903;-75
2021/08/19 06:02:31;;;;;;;;;0.00;0.00;;;;;;;;4984630;28;8836;-74
2021/08/19 06:05:00;;;;;;;;;1.00;1.00;;;;;;;;4967958;28;8873;-74
2021/08/19 06:07:27;;;;;;;;;0.60;0.60;;;;;;;;4978458;28;9577;-74
2021/08/19 06:09:55;;;;;;;;;0.00;0.00;;;;;;;;4999765;28;8888;-75
2021/08/19 06:12:22;;;;;;;;;1.60;0.60;;;;;;;;4995950;28;8865;-73
2021/08/19 06:14:51;;;;;;;;;0.40;0.40;;;;;;;;4996856;28;8872;-75
2021/08/19 06:17:19;;;;;;;;;0.00;0.00;;;;;;;;5003040;28;8884;-74
2021/08/19 06:19:46;;;;;;;;;1.20;0.60;;;;;;;;4974026;28;9642;-73
2021/08/19 06:22:15;;;;;;;;;0.00;0.00;;;;;;;;4999069;28;8868;-74
2021/08/19 06:24:42;;;;;;;;;0.80;0.80;;;;;;;;5000532;28;9672;-72
2021/08/19 06:27:10;;;;;;;;;1.00;1.00;;;;;;;;5002716;28;8860;-72
2021/08/19 06:29:37;;;;;;;;;0.00;0.00;;;;;;;;4996059;28;8881;-72
2021/08/19 06:32:05;;;;;;;;;0.00;0.00;;;;;;;;4998997;28;8817;-74
2021/08/19 06:34:34;;;;;;;;;0.00;0.00;;;;;;;;4997592;28;9643;-71
2021/08/19 06:37:01;;;;;;;;;1.00;1.00;;;;;;;;4997154;28;8852;-73
2021/08/19 06:39:30;;;;;;;;;1.00;1.00;;;;;;;;4999627;28;8853;-72
2021/08/19 06:41:57;;;;;;;;;0.00;0.00;;;;;;;;4999234;28;9668;-71
2021/08/19 06:44:25;;;;;;;;;0.00;0.00;;;;;;;;5001766;28;8870;-74
2021/08/19 06:46:52;;;;;;;;;1.00;1.00;;;;;;;;5000119;28;8841;-72
2021/08/19 06:49:19;;;;;;;;;0.00;0.00;;;;;;;;4995673;28;8887;-74
2021/08/19 06:51:47;;;;;;;;;0.80;0.80;;;;;;;;4992837;28;8884;-76
2021/08/19 06:54:14;;;;;;;;;0.20;0.20;;;;;;;;4999941;28;8876;-77
2021/08/19 06:56:43;;;;;;;;;1.00;1.00;;;;;;;;4994703;28;8868;-77
2021/08/19 06:59:10;;;;;;;;;1.00;1.00;;;;;;;;4993736;28;8927;-76
2021/08/19 07:01:37;;;;;;;;;1.00;1.00;;;;;;;;4989067;28;8910;-75
2021/08/19 07:04:05;;;;;;;;;1.00;1.00;;;;;;;;4989385;28;8841;-75
2021/08/19 07:06:32;;;;;;;;;0.00;0.00;;;;;;;;4992218;28;9636;-75
2021/08/19 07:09:00;;;;;;;;;1.00;1.00;;;;;;;;4993771;28;8879;-74
2021/08/19 07:11:28;;;;;;;;;0.60;0.60;;;;;;;;4991966;28;9425;-74
2021/08/19 07:13:56;;;;;;;;;2.00;2.00;;;;;;;;4976264;28;8882;-75
2021/08/19 07:16:24;;;;;;;;;0.40;0.40;;;;;;;;4998776;28;9680;-74
2021/08/19 07:18:52;;;;;;;;;0.80;0.80;;;;;;;;4982185;28;8896;-74
2021/08/19 07:21:19;;;;;;;;;1.00;1.00;;;;;;;;4996813;28;8852;-75
2021/08/19 07:23:46;;;;;;;;;0.40;0.40;;;;;;;;4982859;28;9506;-76
2021/08/19 07:26:14;;;;;;;;;0.00;0.00;;;;;;;;4967387;28;8914;-77
2021/08/19 07:28:41;;;;;;;;;0.00;0.00;;;;;;;;4988975;28;8885;-74
2021/08/19 07:31:10;;;;;;;;;0.00;0.00;;;;;;;;4980330;28;8855;-74
2021/08/19 07:33:37;;;;;;;;;0.80;0.80;;;;;;;;4977454;28;8918;-73
2021/08/19 07:36:05;;;;;;;;;0.00;0.00;;;;;;;;4984659;28;8959;-74
2021/08/19 07:38:32;;;;;;;;;0.00;0.00;;;;;;;;4971828;28;8881;-74
2021/08/19 07:41:00;;;;;;;;;0.00;0.00;;;;;;;;4983188;28;8885;-74
2021/08/19 07:43:27;;;;;;;;;1.00;1.00;;;;;;;;4983661;28;8895;-73
2021/08/19 07:45:57;;;;;;;;;0.00;0.00;;;;;;;;4983260;28;8865;-74
2021/08/19 07:48:27;;;;;;;;;0.00;0.00;;;;;;;;4976876;28;8952;-73
2021/08/19 07:50:55;;;;;;;;;0.00;0.00;;;;;;;;4994581;28;9624;-74
2021/08/19 07:53:23;;;;;;;;;0.80;0.80;;;;;;;;4998033;28;9009;-72
2021/08/19 07:55:50;;;;;;;;;0.00;0.00;;;;;;;;4998713;28;8868;-73
2021/08/19 07:58:18;;;;;;;;;0.00;0.00;;;;;;;;4998838;28;8856;-72
2021/08/19 08:00:45;;;;;;;;;0.00;0.00;;;;;;;;4993213;28;8817;-74
2021/08/19 08:03:12;;;;;;;;;0.00;0.00;;;;;;;;4989510;28;9689;-72
2021/08/19 08:05:41;;;;;;;;;0.60;0.60;;;;;;;;4993721;28;9590;-72
2021/08/19 08:08:11;;;;;;;;;0.00;0.00;;;;;;;;4982817;28;8881;-73
2021/08/19 08:10:41;;;;;;;;;0.00;0.00;;;;;;;;4983446;28;8869;-74
2021/08/19 08:13:08;;;;;;;;;0.00;0.00;;;;;;;;4982334;28;8869;-73
2021/08/19 08:15:36;;;;;;;;;2.00;0.00;;;;;;;;4966342;28;8895;-75
2021/08/19 08:18:03;;;;;;;;;0.00;0.00;;;;;;;;4982982;28;8876;-73
2021/08/19 08:20:31;;;;;;;;;0.00;0.00;;;;;;;;4982442;28;8857;-73
2021/08/19 08:23:00;;;;;;;;;0.00;0.00;;;;;;;;4985255;28;8853;-73
2021/08/19 08:25:28;;;;;;;;;0.00;0.00;;;;;;;;4993514;28;8872;-72
2021/08/19 08:28:04;;;;;;;;;0.00;0.00;;;;;;;;4991106;28;8856;-73
2021/08/19 08:30:32;;;;;;;;;0.00;0.00;;;;;;;;4968764;28;8824;-73
2021/08/19 08:32:59;;;;;;;;;0.00;0.00;;;;;;;;4998714;28;8910;-74
2021/08/19 08:35:30;;;;;;;;;0.00;0.00;;;;;;;;5001543;28;8880;-73
2021/08/19 08:38:01;;;;;;;;;0.00;0.00;;;;;;;;4999017;28;9638;-73
2021/08/19 08:40:29;;;;;;;;;0.00;0.00;;;;;;;;4993875;28;8852;-73
2021/08/19 08:42:56;;;;;;;;;0.00;0.00;;;;;;;;4994804;28;8923;-75
2021/08/19 08:45:25;;;;;;;;;0.00;0.00;;;;;;;;4997488;28;8890;-73
2021/08/19 08:47:53;;;;;;;;;0.00;0.00;;;;;;;;5000449;28;8857;-73
2021/08/19 08:50:20;;;;;;;;;1.00;0.00;;;;;;;;4995147;28;8893;-73
2021/08/19 08:52:47;;;;;;;;;0.00;0.00;;;;;;;;4986187;28;8859;-73
2021/08/19 08:55:16;;;;;;;;;0.00;0.00;;;;;;;;4985398;28;8927;-74
2021/08/19 08:57:44;;;;;;;;;0.00;0.00;;;;;;;;4986783;28;9087;-74
2021/08/19 09:00:12;;;;;;;;;0.00;0.00;;;;;;;;4993864;28;8877;-73
2021/08/19 09:02:39;;;;;;;;;2.60;0.00;;;;;;;;4984421;28;8905;-73
2021/08/19 09:05:17;;;;;;;;;0.00;0.00;;;;;;;;4985070;28;9036;-73
2021/08/19 09:07:45;;;;;;;;;0.00;0.00;;;;;;;;4976268;28;8872;-73
2021/08/19 09:10:14;;;;;;;;;0.00;0.00;;;;;;;;4996338;28;8860;-74
2021/08/19 09:12:42;;;;;;;;;0.00;0.00;;;;;;;;4968511;28;8992;-76
2021/08/19 09:15:12;;;;;;;;;0.00;0.00;;;;;;;;4986444;28;8892;-74
2021/08/19 09:17:44;;;;;;;;;0.00;0.00;;;;;;;;4993361;28;8865;-74
2021/08/19 09:20:13;;;;;;;;;1.80;0.00;;;;;;;;4985932;28;8865;-73
2021/08/19 09:22:56;;;;;;;;;0.00;0.00;;;;;;;;4994913;28;8852;-73
2021/08/19 09:25:29;;;;;;;;;1.00;1.00;;;;;;;;4984615;28;8864;-78
2021/08/19 09:28:18;;;;;;;;;0.00;0.00;;;;;;;;4988965;28;8868;-75
2021/08/19 09:30:48;;;;;;;;;1.00;1.00;;;;;;;;4985105;28;8871;-76
2021/08/19 09:33:17;;;;;;;;;1.00;1.00;;;;;;;;4985129;28;8873;-80
2021/08/19 09:35:46;;;;;;;;;1.00;1.00;;;;;;;;4994492;28;8868;-77
2021/08/19 09:38:15;;;;;;;;;1.00;1.00;;;;;;;;5002727;28;8868;-77
2021/08/19 09:40:43;;;;;;;;;1.00;1.00;;;;;;;;4998556;28;8860;-77
2021/08/19 09:43:13;;;;;;;;;0.00;0.00;;;;;;;;5002955;28;9509;-80
2021/08/19 09:45:47;;;;;;;;;4.80;2.00;;;;;;;;4999019;28;8853;-77
2021/08/19 09:48:15;;;;;;;;;1.00;1.00;;;;;;;;4990617;28;8873;-77
2021/08/19 09:50:43;;;;;;;;;0.00;0.00;;;;;;;;4983555;28;8861;-76
2021/08/19 09:53:32;;;;;;;;;0.00;0.00;;;;;;;;4982938;28;9678;-76
2021/08/19 09:55:59;;;;;;;;;0.00;0.00;;;;;;;;4991387;28;8881;-74
2021/08/19 09:58:34;;;;;;;;;0.00;0.00;;;;;;;;4993639;28;8856;-75
2021/08/19 10:01:02;;;;;;;;;0.00;0.00;;;;;;;;4992247;28;8801;-74
2021/08/19 10:03:30;;;;;;;;;0.00;0.00;;;;;;;;4983338;28;8919;-74
2021/08/19 10:05:58;;;;;;;;;0.00;0.00;;;;;;;;4983837;28;8887;-73
2021/08/19 10:08:25;;;;;;;;;0.00;0.00;;;;;;;;4985803;28;8895;-74
2021/08/19 10:10:55;;;;;;;;;0.00;0.00;;;;;;;;4985251;28;8869;-74
2021/08/19 10:13:24;;;;;;;;;0.00;0.00;;;;;;;;4985292;28;8885;-74
2021/08/19 10:15:52;;;;;;;;;0.00;0.00;;;;;;;;4985661;28;9642;-75
2021/08/19 10:18:25;;;;;;;;;0.00;0.00;;;;;;;;4984916;28;8865;-75
2021/08/19 10:21:04;;;;;;;;;0.00;0.00;;;;;;;;4985510;28;8885;-73
2021/08/19 10:23:31;;;;;;;;;0.00;0.00;;;;;;;;4984805;28;8853;-74
2021/08/19 10:26:10;;;;;;;;;0.00;0.00;;;;;;;;4985390;28;8876;-74
2021/08/19 10:28:54;;;;;;;;;0.00;0.00;;;;;;;;4978018;28;8876;-73
2021/08/19 10:31:45;;;;;;;;;0.00;0.00;;;;;;;;4984061;28;8816;-74
2021/08/19 10:34:20;;;;;;;;;0.00;0.00;;;;;;;;4985796;28;8907;-75
2021/08/19 10:36:52;;;;;;;;;0.00;0.00;;;;;;;;4984527;28;8873;-74
2021/08/19 10:39:49;;;;;;;;;0.00;0.00;;;;;;;;4984615;28;8975;-73
2021/08/19 10:42:30;;;;;;;;;0.00;0.00;;;;;;;;4925330;29;9212;-74
2021/08/19 10:44:58;;;;;;;;;0.00;0.00;;;;;;;;4975431;28;8889;-75
2021/08/19 10:47:39;;;;;;;;;0.00;0.00;;;;;;;;4985236;28;8891;-74
2021/08/19 10:50:27;;;;;;;;;0.00;0.00;;;;;;;;4966893;28;8869;-74
2021/08/19 10:52:57;;;;;;;;;0.20;0.00;;;;;;;;4984494;28;8900;-72
2021/08/19 10:55:26;;;;;;;;;0.00;0.00;;;;;;;;4984975;28;9000;-74
2021/08/19 10:57:55;;;;;;;;;0.00;0.00;;;;;;;;4983188;28;8909;-74
2021/08/19 11:00:42;;;;;;;;;0.00;0.00;;;;;;;;4984632;28;8888;-75
2021/08/19 11:03:42;;;;;;;;;2.00;0.00;;;;;;;;4967679;28;8881;-76
2021/08/19 11:06:13;;;;;;;;;1.00;1.00;;;;;;;;4980153;28;8902;-74
2021/08/19 11:08:51;;;;;;;;;0.00;0.00;;;;;;;;4985022;28;8877;-74
2021/08/19 11:11:27;;;;;;;;;1.00;1.00;;;;;;;;4983708;28;8881;-75
2021/08/19 11:14:00;;;;;;;;;1.00;1.00;;;;;;;;4984180;28;8873;-75
2021/08/19 11:16:27;;;;;;;;;1.80;1.80;;;;;;;;4985046;28;8901;-74
2021/08/19 11:18:55;;;;;;;;;0.00;0.00;;;;;;;;4983591;28;8995;-74
2021/08/19 11:21:24;;;;;;;;;1.00;1.00;;;;;;;;4984654;28;8869;-75
2021/08/19 11:23:51;;;;;;;;;0.20;0.20;;;;;;;;4983688;28;8897;-74
2021/08/19 11:26:20;;;;;;;;;2.00;2.00;;;;;;;;4985430;28;8877;-74
2021/08/19 11:28:49;;;;;;;;;1.80;1.80;;;;;;;;4984053;28;9756;-75
2021/08/19 11:31:19;;;;;;;;;3.00;1.60;;;;;;;;4966362;28;8805;-76
2021/08/19 11:33:48;;;;;;;;;1.80;1.80;;;;;;;;4984929;28;8857;-74
2021/08/19 11:36:16;;;;;;;;;3.00;3.00;;;;;;;;4966362;28;8868;-75
2021/08/19 11:38:45;;;;;;;;;2.80;2.80;;;;;;;;4976545;28;8927;-75
2021/08/19 11:41:16;;;;;;;;;2.00;2.00;;;;;;;;4983695;28;8905;-74
2021/08/19 11:43:44;;;;;;;;;3.00;1.40;;;;;;;;4984796;28;8899;-74
2021/08/19 11:46:14;;;;;;;;;1.00;1.00;;;;;;;;4983198;28;9655;-75
2021/08/19 11:48:49;;;;;;;;;5.00;1.60;;;;;;;;4984062;28;8849;-74
2021/08/19 11:51:24;;;;;;;;;2.00;2.00;;;;;;;;4984469;28;8907;-75
2021/08/19 11:53:55;;;;;;;;;1.80;1.80;;;;;;;;4963265;28;9051;-74
2021/08/19 11:56:22;;;;;;;;;2.60;2.60;;;;;;;;4970485;28;8861;-75
2021/08/19 11:58:52;;;;;;;;;1.80;1.80;;;;;;;;4979510;28;9677;-78
2021/08/19 12:01:25;;;;;;;;;2.00;2.00;;;;;;;;4992155;28;8848;-75
2021/08/19 12:03:53;;;;;;;;;1.00;1.00;;;;;;;;4970566;28;8870;-76
2021/08/19 12:06:21;;;;;;;;;2.00;2.00;;;;;;;;4997246;28;8879;-75
2021/08/19 12:08:50;;;;;;;;;1.20;1.20;;;;;;;;5004828;28;8948;-74
2021/08/19 12:11:20;;;;;;;;;0.80;0.80;;;;;;;;4996413;28;9006;-76
2021/08/19 12:13:49;;;;;;;;;1.00;1.00;;;;;;;;4997862;28;8875;-76
2021/08/19 12:16:20;;;;;;;;;1.00;1.00;;;;;;;;5002971;28;8876;-74
2021/08/19 12:19:12;;;;;;;;;1.00;1.00;;;;;;;;5000652;28;8857;-77
2021/08/19 12:21:42;;;;;;;;;1.00;1.00;;;;;;;;4995728;28;8859;-75
2021/08/19 12:24:12;;;;;;;;;3.00;1.00;;;;;;;;5005146;28;9010;-76
2021/08/19 12:26:41;;;;;;;;;0.80;0.00;;;;;;;;5005172;28;8867;-75
2021/08/19 12:29:18;;;;;;;;;0.00;0.00;;;;;;;;5004062;28;8878;-75
2021/08/19 12:31:48;;;;;;;;;0.20;0.20;;;;;;;;5001624;28;8828;-76
2021/08/19 12:34:16;;;;;;;;;1.00;1.00;;;;;;;;5004139;28;8860;-76
2021/08/19 12:36:43;;;;;;;;;3.00;1.40;;;;;;;;5005900;28;8899;-75
2021/08/19 12:39:25;;;;;;;;;1.00;1.00;;;;;;;;5003748;28;8906;-75
2021/08/19 12:42:07;;;;;;;;;5.80;5.80;;;;;;;;5003485;28;8939;-75
2021/08/19 12:44:35;;;;;;;;;0.80;0.80;;;;;;;;4996303;28;8888;-77
2021/08/19 12:47:03;;;;;;;;;2.00;2.00;;;;;;;;4983731;28;9760;-78
2021/08/19 12:49:35;;;;;;;;;2.20;2.00;;;;;;;;5001242;28;8995;-75
2021/08/19 12:52:27;;;;;;;;;1.60;1.60;;;;;;;;4982943;28;8904;-75
2021/08/19 12:55:03;;;;;;;;;1.80;1.80;;;;;;;;4969502;28;9008;-78
2021/08/19 12:57:53;;;;;;;;;4.00;1.00;;;;;;;;4968840;28;9021;-76
2021/08/19 13:00:23;;;;;;;;;0.00;0.00;;;;;;;;5003711;28;8833;-75
2021/08/19 13:02:51;;;;;;;;;0.40;0.40;;;;;;;;5001663;28;8983;-76
2021/08/19 13:05:20;;;;;;;;;1.00;1.00;;;;;;;;4992174;28;8861;-76
2021/08/19 13:07:49;;;;;;;;;0.60;0.60;;;;;;;;4995025;28;8922;-75
2021/08/19 13:10:18;;;;;;;;;1.60;1.60;;;;;;;;5000047;28;9666;-76
2021/08/19 13:12:47;;;;;;;;;1.00;1.00;;;;;;;;4999076;28;8868;-76
2021/08/19 13:15:16;;;;;;;;;1.00;1.00;;;;;;;;4995711;28;8902;-75
2021/08/19 13:17:44;;;;;;;;;1.00;1.00;;;;;;;;5003360;28;8854;-76
2021/08/19 13:20:12;;;;;;;;;1.00;1.00;;;;;;;;4986964;28;8909;-76
2021/08/19 13:22:39;;;;;;;;;1.00;1.00;;;;;;;;4994745;28;8873;-76
2021/08/19 13:25:09;;;;;;;;;2.00;2.00;;;;;;;;4984887;28;8885;-75
2021/08/19 13:27:36;;;;;;;;;1.00;1.00;;;;;;;;4987125;28;8884;-76
2021/08/19 13:30:06;;;;;;;;;1.00;1.00;;;;;;;;4988265;28;8865;-75
2021/08/19 13:32:33;;;;;;;;;0.80;0.80;;;;;;;;5002964;28;8928;-76
2021/08/19 13:35:00;;;;;;;;;0.00;0.00;;;;;;;;4999089;28;8845;-75
2021/08/19 13:37:28;;;;;;;;;1.00;1.00;;;;;;;;4989677;28;8852;-74
2021/08/19 13:39:55;;;;;;;;;0.00;0.00;;;;;;;;4990042;28;9659;-74
2021/08/19 13:42:22;;;;;;;;;1.00;1.00;;;;;;;;4990068;28;8873;-74
2021/08/19 13:44:49;;;;;;;;;0.80;0.80;;;;;;;;4989932;28;9003;-75
2021/08/19 13:47:18;;;;;;;;;1.00;1.00;;;;;;;;4985078;28;8872;-75
2021/08/19 13:49:45;;;;;;;;;0.00;0.00;;;;;;;;4990162;28;8845;-76
2021/08/19 13:52:14;;;;;;;;;0.20;0.20;;;;;;;;4996277;28;8872;-74
2021/08/19 13:54:41;;;;;;;;;1.00;1.00;;;;;;;;4982639;28;8903;-75
2021/08/19 13:57:08;;;;;;;;;0.00;0.00;;;;;;;;4971565;28;8860;-79
2021/08/19 13:59:36;;;;;;;;;0.00;0.00;;;;;;;;4964319;28;8852;-76
2021/08/19 14:02:04;;;;;;;;;1.00;1.00;;;;;;;;4966092;28;8836;-76
2021/08/19 14:04:33;;;;;;;;;0.00;0.00;;;;;;;;4965604;28;8971;-76
2021/08/19 14:07:01;;;;;;;;;0.40;0.40;;;;;;;;4966148;28;8879;-76
2021/08/19 14:09:30;;;;;;;;;0.00;0.00;;;;;;;;4965477;28;8943;-76
2021/08/19 14:11:57;;;;;;;;;0.00;0.00;;;;;;;;4966353;28;8872;-79
2021/08/19 14:14:25;;;;;;;;;0.00;0.00;;;;;;;;4966455;28;8891;-76
2021/08/19 14:16:52;;;;;;;;;0.00;0.00;;;;;;;;4947611;28;9752;-77
2021/08/19 14:19:19;;;;;;;;;0.00;0.00;;;;;;;;4966061;28;8967;-77
2021/08/19 14:21:48;;;;;;;;;0.00;0.00;;;;;;;;4965083;28;8869;-76
2021/08/19 14:24:16;;;;;;;;;0.00;0.00;;;;;;;;4968683;28;8869;-76
2021/08/19 14:26:44;;;;;;;;;0.40;0.00;;;;;;;;4963447;28;8939;-77
2021/08/19 14:29:12;;;;;;;;;0.00;0.00;;;;;;;;4948756;28;8906;-78
2021/08/19 14:31:39;;;;;;;;;0.00;0.00;;;;;;;;4961217;28;8812;-76
2021/08/19 14:34:06;;;;;;;;;1.00;1.00;;;;;;;;4976694;28;8892;-76
2021/08/19 14:36:34;;;;;;;;;0.00;0.00;;;;;;;;4962036;28;8884;-75
2021/08/19 14:39:05;;;;;;;;;0.80;0.80;;;;;;;;4955538;28;8861;-78
2021/08/19 14:41:33;;;;;;;;;1.00;1.00;;;;;;;;4946114;28;8887;-74
2021/08/19 14:44:00;;;;;;;;;1.00;1.00;;;;;;;;4962875;28;8876;-78
2021/08/19 14:46:27;;;;;;;;;0.20;0.20;;;;;;;;4965194;28;8896;-75
2021/08/19 14:48:55;;;;;;;;;1.00;1.00;;;;;;;;4965370;28;8918;-78
2021/08/19 14:51:22;;;;;;;;;1.80;0.60;;;;;;;;4963722;28;8891;-74
2021/08/19 14:53:49;;;;;;;;;1.00;1.00;;;;;;;;4980418;28;8870;-76
2021/08/19 14:56:18;;;;;;;;;1.00;1.00;;;;;;;;4982912;28;8900;-76
2021/08/19 14:58:45;;;;;;;;;0.00;0.00;;;;;;;;4984819;28;8889;-76
2021/08/19 15:01:12;;;;;;;;;0.00;0.00;;;;;;;;4964844;28;8944;-76
2021/08/19 15:03:40;;;;;;;;;1.00;1.00;;;;;;;;4984757;28;9651;-75
2021/08/19 15:06:07;;;;;;;;;0.60;0.60;;;;;;;;4984092;28;8903;-76
2021/08/19 15:08:36;;;;;;;;;0.00;0.00;;;;;;;;4983929;28;8873;-76